createdAt,value
2022-08-05T00:00:53.665Z,20.33
2022-08-05T00:06:06.562Z,20.26
2022-08-05T00:11:23.920Z,20.43
2022-08-05T00:16:36.215Z,20.69
2022-08-05T00:21:54.171Z,20.72
2022-08-05T00:26:55.991Z,20.71
2022-08-05T00:32:12.838Z,20.85
2022-08-05T00:37:18.052Z,21.04
2022-08-05T00:42:36.824Z,20.85
2022-08-05T00:47:56.706Z,20.64
2022-08-05T00:53:00.606Z,21.30
2022-08-05T00:58:04.670Z,20.81
2022-08-05T01:03:19.687Z,20.56
2022-08-05T01:08:40.455Z,20.47
2022-08-05T01:14:08.735Z,20.40
2022-08-05T01:19:56.106Z,20.41
2022-08-05T01:25:40.199Z,20.45
2022-08-05T01:30:53.963Z,20.46
2022-08-05T01:35:59.208Z,20.39
2022-08-05T01:41:03.493Z,20.41
2022-08-05T01:46:41.476Z,20.23
2022-08-05T01:51:36.142Z,20.11
2022-08-05T01:58:09.488Z,20.22
2022-08-05T02:02:04.551Z,20.18
2022-08-05T02:07:12.727Z,20.09
2022-08-05T02:12:54.711Z,19.97
2022-08-05T02:18:27.998Z,19.95
2022-08-05T02:23:29.108Z,20.05
2022-08-05T02:28:41.725Z,19.94
2022-08-05T02:33:57.751Z,19.94
2022-08-05T02:39:10.256Z,19.93
2022-08-05T02:44:38.258Z,19.91
2022-08-05T02:49:42.294Z,20.07
2022-08-05T02:55:10.667Z,20.12
2022-08-05T03:00:13.568Z,20.13
2022-08-05T03:05:16.025Z,20.14
2022-08-05T03:10:24.349Z,20.24
2022-08-05T03:15:26.661Z,19.97
2022-08-05T03:20:29.890Z,20.08
2022-08-05T03:26:04.663Z,20.07
2022-08-05T03:30:56.402Z,20.02
2022-08-05T03:35:59.646Z,19.77
2022-08-05T03:41:08.228Z,19.75
2022-08-05T03:46:12.508Z,19.53
2022-08-05T03:52:38.875Z,19.59
2022-08-05T03:57:41.122Z,19.81
2022-08-05T04:02:52.292Z,19.48
2022-08-05T04:08:02.233Z,19.44
2022-08-05T04:13:06.437Z,19.41
2022-08-05T04:18:09.708Z,19.24
2022-08-05T04:23:12.446Z,19.27
2022-08-05T04:28:14.371Z,19.06
2022-08-05T04:34:17.302Z,19.01
2022-08-05T04:39:05.715Z,19.04
2022-08-05T04:44:09.491Z,18.93
2022-08-05T04:49:14.478Z,18.85
2022-08-05T04:54:16.489Z,18.74
2022-08-05T04:59:24.097Z,18.73
2022-08-05T05:04:43.930Z,18.66
2022-08-05T05:09:49.615Z,18.70
2022-08-05T05:14:52.471Z,18.83
2022-08-05T05:19:56.437Z,18.92
2022-08-05T05:25:00.128Z,19.06
2022-08-05T05:30:05.291Z,19.12
2022-08-05T05:35:07.358Z,19.02
2022-08-05T05:40:10.795Z,19.10
2022-08-05T05:45:14.462Z,19.42
2022-08-05T05:50:19.813Z,19.52
2022-08-05T05:55:21.729Z,19.22
2022-08-05T06:00:31.433Z,19.22
2022-08-05T06:05:33.532Z,19.24
2022-08-05T06:10:37.399Z,19.19
2022-08-05T06:16:31.388Z,19.33
2022-08-05T06:21:16.566Z,19.48
2022-08-05T06:26:21.405Z,19.50
2022-08-05T06:31:48.715Z,19.55
2022-08-05T06:36:57.844Z,19.86
2022-08-05T06:42:04.631Z,19.96
2022-08-05T06:47:06.696Z,19.97
2022-08-05T06:52:36.978Z,20.02
2022-08-05T06:57:57.385Z,19.90
2022-08-05T07:02:56.075Z,19.88
2022-08-05T07:07:57.669Z,19.94
2022-08-05T07:13:58.255Z,20.11
2022-08-05T07:18:39.821Z,20.49
2022-08-05T07:23:52.184Z,20.31
2022-08-05T07:28:54.017Z,20.33
2022-08-05T07:33:55.622Z,20.27
2022-08-05T07:39:05.662Z,20.28
2022-08-05T07:44:18.573Z,20.46
2022-08-05T07:49:21.128Z,20.27
2022-08-05T07:54:30.734Z,20.20
2022-08-05T07:59:39.880Z,20.14
2022-08-05T08:04:43.008Z,19.98
2022-08-05T08:09:47.001Z,19.91
2022-08-05T08:14:49.739Z,19.97
2022-08-05T08:20:42.778Z,20.00
2022-08-05T08:25:27.012Z,20.05
2022-08-05T08:30:49.510Z,20.04
2022-08-05T08:35:52.828Z,20.02
2022-08-05T08:41:04.266Z,20.03
2022-08-05T08:46:06.419Z,20.05
2022-08-05T08:51:30.649Z,20.09
2022-08-05T08:56:33.653Z,20.05
2022-08-05T09:01:37.704Z,20.02
2022-08-05T09:06:44.460Z,19.97
2022-08-05T09:11:57.804Z,19.92
2022-08-05T09:17:09.647Z,19.88
2022-08-05T09:23:19.419Z,19.90
2022-08-05T09:28:24.441Z,19.89
2022-08-05T09:33:51.138Z,19.93
2022-08-05T09:39:02.383Z,19.92
2022-08-05T09:44:04.277Z,19.81
2022-08-05T09:49:54.447Z,19.87
2022-08-05T09:55:56.165Z,19.97
2022-08-05T10:00:31.115Z,20.30
2022-08-05T10:05:33.507Z,20.26
2022-08-05T10:17:36.848Z,20.07
2022-08-05T10:22:37.960Z,19.88
2022-08-05T10:28:13.002Z,19.99
2022-08-05T10:33:09.400Z,19.94
2022-08-05T10:38:19.657Z,19.99
2022-08-05T10:43:35.849Z,19.96
2022-08-05T10:48:52.807Z,19.98
2022-08-05T10:54:02.060Z,20.00
2022-08-05T11:00:01.819Z,20.05
2022-08-05T11:04:55.325Z,20.05
2022-08-05T11:10:03.705Z,20.11
2022-08-05T11:15:21.697Z,20.26
2022-08-05T11:20:32.628Z,20.18
2022-08-05T11:26:04.616Z,20.30
2022-08-05T11:30:58.427Z,20.45
2022-08-05T11:36:08.708Z,20.47
2022-08-05T11:41:56.403Z,20.28
2022-08-05T11:46:58.188Z,20.33
2022-08-05T11:52:01.085Z,20.48
2022-08-05T11:57:07.648Z,20.37
2022-08-05T12:02:23.725Z,20.49
2022-08-05T12:08:10.444Z,20.40
2022-08-05T12:12:58.479Z,20.54
2022-08-05T12:18:09.963Z,21.27
2022-08-05T12:23:12.862Z,21.42
2022-08-05T12:28:30.988Z,21.82
2022-08-05T12:33:36.237Z,22.05
2022-08-05T12:38:40.261Z,22.18
2022-08-05T12:43:55.219Z,22.58
2022-08-05T12:49:13.802Z,22.78
2022-08-05T12:54:26.702Z,22.68
2022-08-05T13:00:08.246Z,22.30
2022-08-05T13:04:55.608Z,22.44
2022-08-05T13:10:01.465Z,21.76
2022-08-05T13:15:06.874Z,21.71
2022-08-05T13:20:23.614Z,21.86
2022-08-05T13:25:52.520Z,22.02
2022-08-05T13:30:48.519Z,22.12
2022-08-05T13:35:54.865Z,22.21
2022-08-05T13:41:03.939Z,22.32
2022-08-05T13:46:05.907Z,22.16
2022-08-05T13:51:09.609Z,22.32
2022-08-05T13:56:18.357Z,22.34
2022-08-05T14:01:25.902Z,22.55
2022-08-05T14:06:38.045Z,22.82
2022-08-05T14:12:04.216Z,22.49
2022-08-05T14:17:04.463Z,22.65
2022-08-05T14:22:12.082Z,22.20
2022-08-05T14:27:17.758Z,22.42
2022-08-05T14:32:27.851Z,22.22
2022-08-05T14:37:45.260Z,22.32
2022-08-05T14:42:50.464Z,22.55
2022-08-05T14:48:03.138Z,22.56
2022-08-05T14:53:06.361Z,22.39
2022-08-05T14:58:11.213Z,22.70
2022-08-05T15:03:14.382Z,22.81
2022-08-05T15:08:58.353Z,22.75
2022-08-05T15:13:44.933Z,22.63
2022-08-05T15:18:48.255Z,22.86
2022-08-05T15:23:49.934Z,22.82
2022-08-05T15:28:53.118Z,22.72
2022-08-05T15:34:18.811Z,22.72
2022-08-05T15:40:58.875Z,23.05
2022-08-05T15:44:41.543Z,22.68
2022-08-05T15:49:56.617Z,22.68
2022-08-05T15:55:00.906Z,22.71
2022-08-05T16:00:08.088Z,22.59
2022-08-05T16:05:09.794Z,22.54
2022-08-05T16:10:12.877Z,22.58
2022-08-05T16:15:18.541Z,22.58
2022-08-05T16:20:20.475Z,22.41
2022-08-05T16:25:22.177Z,22.26
2022-08-05T16:30:36.182Z,21.93
2022-08-05T16:35:42.281Z,22.14
2022-08-05T16:40:51.990Z,22.02
2022-08-05T16:46:07.662Z,21.90
2022-08-05T16:51:15.962Z,22.00
2022-08-05T16:56:18.332Z,21.77
2022-08-05T17:01:21.689Z,21.48
2022-08-05T17:06:26.061Z,21.93
2022-08-05T17:11:29.249Z,22.00
2022-08-05T17:16:38.010Z,21.99
2022-08-05T17:21:40.077Z,21.80
2022-08-05T17:26:41.908Z,21.65
2022-08-05T17:31:58.455Z,21.22
2022-08-05T17:37:00.812Z,21.31
2022-08-05T17:42:18.621Z,21.27
2022-08-05T17:47:23.663Z,21.40
2022-08-05T17:52:29.663Z,21.46
2022-08-05T17:57:31.530Z,21.23
2022-08-05T18:02:34.703Z,21.22
2022-08-05T18:07:41.618Z,20.95
2022-08-05T18:12:44.042Z,20.70
2022-08-05T18:17:58.926Z,20.68
2022-08-05T18:23:09.124Z,20.65
2022-08-05T18:28:16.590Z,20.76
2022-08-05T18:33:23.078Z,20.69
2022-08-05T18:38:25.929Z,20.59
2022-08-05T18:43:31.666Z,20.38
2022-08-05T18:48:41.468Z,20.22
2022-08-05T18:53:50.102Z,20.31
2022-08-05T18:58:54.943Z,20.14
2022-08-05T19:04:02.765Z,20.06
2022-08-05T19:09:07.591Z,19.84
2022-08-05T19:14:44.717Z,19.94
2022-08-05T19:19:31.422Z,19.91
2022-08-05T19:24:34.337Z,19.79
2022-08-05T19:29:38.089Z,19.68
2022-08-05T19:34:40.819Z,19.67
2022-08-05T19:39:50.555Z,19.57
2022-08-05T19:44:53.660Z,19.44
2022-08-05T19:50:01.527Z,19.37
2022-08-05T19:55:07.275Z,19.30
2022-08-05T20:00:25.851Z,19.27
2022-08-05T20:05:49.804Z,19.21
2022-08-05T20:10:54.226Z,19.15
2022-08-05T20:15:57.536Z,19.19
2022-08-05T20:21:01.043Z,19.05
2022-08-05T20:26:04.005Z,19.04
2022-08-05T20:31:12.121Z,18.90
2022-08-05T20:36:16.422Z,18.79
2022-08-05T20:41:23.912Z,18.76
2022-08-05T20:46:37.729Z,18.66
2022-08-05T20:51:39.850Z,18.62
2022-08-05T20:56:43.761Z,18.53
2022-08-05T21:01:51.772Z,18.51
2022-08-05T21:06:55.086Z,18.44
2022-08-05T21:12:09.066Z,18.42
2022-08-05T21:17:13.111Z,18.40
2022-08-05T21:22:23.224Z,18.35
2022-08-05T21:27:27.996Z,18.41
2022-08-05T21:32:40.315Z,18.35
2022-08-05T21:37:53.052Z,18.32
2022-08-05T21:42:55.278Z,18.25
2022-08-05T21:48:01.047Z,18.27
2022-08-05T21:53:08.373Z,18.16
2022-08-05T21:58:19.589Z,18.15
2022-08-05T22:03:48.560Z,18.13
2022-08-05T22:08:43.005Z,18.06
2022-08-05T22:14:33.883Z,17.98
2022-08-05T22:19:15.212Z,17.97
2022-08-05T22:24:52.208Z,17.88
2022-08-05T22:29:55.100Z,17.82
2022-08-05T22:34:57.654Z,17.78
2022-08-05T22:40:03.171Z,17.75
2022-08-05T22:45:26.549Z,17.70
2022-08-05T22:50:29.135Z,17.64
2022-08-05T22:55:56.722Z,17.62
2022-08-05T23:00:52.579Z,17.63
2022-08-05T23:05:58.624Z,17.60
2022-08-05T23:11:02.523Z,17.53
2022-08-05T23:16:05.007Z,17.52
2022-08-05T23:21:06.827Z,17.52
2022-08-05T23:26:11.850Z,17.41
2022-08-05T23:31:17.577Z,17.44
2022-08-05T23:36:19.470Z,17.41
2022-08-05T23:41:21.081Z,17.38
2022-08-05T23:46:23.438Z,17.30
2022-08-05T23:51:25.010Z,17.28
2022-08-05T23:56:27.770Z,17.21
